Time;durP1;ratioP1;P1;durP2;ratioP2;P2;SDS_P1;SDS_P2;PMS_P1;PMS_P2;Temp;Humidity;BMP_temperature;BMP_pressure;BME280_temperature;BME280_humidity;BME280_pressure;Samples;Min_cycle;Max_cycle;Signal;HPM_P1;HPM_P2
2023/12/19 00:01:29;;;;;;;1.45;1.20;;;18.40;52.50;;;;;;8363960;28;20391;-51
2023/12/19 00:05:30;;;;;;;1.40;1.27;;;18.40;52.50;;;;;;8362762;28;20037;-52
2023/12/19 00:09:30;;;;;;;1.48;1.30;;;18.40;52.50;;;;;;8363719;28;20040;-52
2023/12/19 00:13:32;;;;;;;1.35;1.20;;;18.40;52.50;;;;;;8363700;28;20509;-52
2023/12/19 00:17:33;;;;;;;1.60;1.45;;;18.40;52.50;;;;;;8363377;28;20029;-52
2023/12/19 00:21:34;;;;;;;1.65;1.55;;;18.40;52.50;;;;;;8362081;28;20041;-52
2023/12/19 00:25:35;;;;;;;1.63;1.35;;;18.40;52.50;;;;;;8363183;28;20040;-52
2023/12/19 00:29:36;;;;;;;1.52;1.40;;;18.40;53.00;;;;;;8362885;28;20112;-51
2023/12/19 00:33:36;;;;;;;1.50;1.40;;;18.40;52.50;;;;;;8363277;28;20037;-52
2023/12/19 00:37:37;;;;;;;1.85;1.42;;;18.40;52.50;;;;;;8362559;28;20053;-52
2023/12/19 00:41:38;;;;;;;1.67;1.48;;;18.40;52.50;;;;;;8362538;28;20033;-51
2023/12/19 00:45:38;;;;;;;1.63;1.52;;;18.40;52.50;;;;;;8362654;28;20041;-52
2023/12/19 00:49:39;;;;;;;1.40;1.30;;;18.40;52.50;;;;;;8362434;28;20159;-52
2023/12/19 00:53:41;;;;;;;1.27;1.17;;;18.40;53.00;;;;;;8362456;28;20478;-51
2023/12/19 00:57:41;;;;;;;2.00;1.77;;;18.40;52.50;;;;;;8362207;28;20021;-52
2023/12/19 01:01:42;;;;;;;1.80;1.55;;;18.40;52.50;;;;;;8362117;28;20029;-50
2023/12/19 01:05:43;;;;;;;2.17;1.65;;;18.40;52.50;;;;;;8361133;28;20379;-50
2023/12/19 01:09:44;;;;;;;2.28;1.30;;;18.40;52.50;;;;;;8362332;28;20475;-51
2023/12/19 01:13:45;;;;;;;2.17;1.42;;;18.40;52.50;;;;;;8361698;28;20499;-51
2023/12/19 01:17:45;;;;;;;1.98;1.70;;;18.40;52.50;;;;;;8361959;28;20445;-51
2023/12/19 01:21:46;;;;;;;1.67;1.58;;;18.40;52.60;;;;;;8360107;28;20032;-51
2023/12/19 01:25:47;;;;;;;2.03;1.35;;;18.40;52.60;;;;;;8361808;28;20033;-51
2023/12/19 01:29:48;;;;;;;1.45;1.35;;;18.40;52.60;;;;;;8361315;28;20028;-52
2023/12/19 01:33:48;;;;;;;1.60;1.50;;;18.40;52.50;;;;;;8361093;28;20067;-52
2023/12/19 01:37:49;;;;;;;1.50;1.38;;;18.40;52.50;;;;;;8360872;28;20056;-52
2023/12/19 01:41:50;;;;;;;1.83;1.40;;;18.40;52.60;;;;;;8360789;28;20036;-52
2023/12/19 01:45:51;;;;;;;1.50;1.40;;;18.40;52.60;;;;;;8360962;28;20040;-52
2023/12/19 01:49:51;;;;;;;1.75;1.52;;;18.40;52.80;;;;;;8360664;28;20490;-51
2023/12/19 01:53:52;;;;;;;1.65;1.48;;;18.40;52.60;;;;;;8360470;28;20040;-52
2023/12/19 01:57:54;;;;;;;2.15;1.50;;;18.40;52.60;;;;;;8360595;28;20386;-52
2023/12/19 02:01:55;;;;;;;1.63;1.45;;;18.30;52.50;;;;;;8360262;28;20046;-50
2023/12/19 02:05:59;;;;;;;1.50;1.27;;;18.40;52.50;;;;;;8360385;28;20067;-51
2023/12/19 02:10:00;;;;;;;1.67;1.48;;;18.40;52.50;;;;;;8360181;28;20025;-51
2023/12/19 02:14:01;;;;;;;1.90;1.40;;;18.40;52.50;;;;;;8360163;28;20039;-51
2023/12/19 02:18:15;;;;;;;2.20;1.65;;;18.40;52.60;;;;;;8359578;28;20399;-52
2023/12/19 02:22:16;;;;;;;1.73;1.40;;;18.30;52.50;;;;;;8360020;28;20437;-50
2023/12/19 02:26:16;;;;;;;1.77;1.52;;;18.30;52.50;;;;;;8359892;28;20033;-50
2023/12/19 02:30:17;;;;;;;1.67;1.55;;;18.40;52.50;;;;;;8360095;28;20045;-52
2023/12/19 02:34:18;;;;;;;2.07;1.87;;;18.30;52.50;;;;;;8359820;28;20033;-50
2023/12/19 02:38:18;;;;;;;1.45;1.25;;;18.30;52.50;;;;;;8359676;28;20661;-50
2023/12/19 02:42:19;;;;;;;1.48;1.38;;;18.30;52.50;;;;;;8358706;28;20029;-52
2023/12/19 02:46:20;;;;;;;1.83;1.58;;;18.30;52.50;;;;;;8359748;28;20429;-50
2023/12/19 02:50:20;;;;;;;1.80;1.25;;;18.30;52.50;;;;;;8359604;28;20548;-50
2023/12/19 02:54:21;;;;;;;1.40;1.30;;;18.30;52.50;;;;;;8359538;28;20504;-50
2023/12/19 02:58:22;;;;;;;2.00;1.80;;;18.30;52.50;;;;;;8359589;28;20029;-51
2023/12/19 03:02:22;;;;;;;3.17;1.53;;;18.30;52.50;;;;;;8341659;28;20641;-50
2023/12/19 03:06:23;;;;;;;1.88;1.50;;;18.30;52.50;;;;;;8359346;28;20279;-51
2023/12/19 03:10:24;;;;;;;1.30;1.20;;;18.30;52.50;;;;;;8359352;28;20044;-52
2023/12/19 03:14:25;;;;;;;1.65;1.42;;;18.30;52.50;;;;;;8359291;28;20060;-48
2023/12/19 03:18:25;;;;;;;1.40;1.30;;;18.30;53.00;;;;;;8359664;28;20037;-49
2023/12/19 03:22:26;;;;;;;1.40;1.30;;;18.30;52.50;;;;;;8359043;28;20124;-49
2023/12/19 03:26:27;;;;;;;2.42;1.60;;;18.30;52.40;;;;;;8359132;28;20033;-49
2023/12/19 03:30:27;;;;;;;1.35;1.25;;;18.30;52.50;;;;;;8362805;28;20029;-48
2023/12/19 03:34:28;;;;;;;1.52;1.30;;;18.30;52.40;;;;;;8365112;28;20039;-48
2023/12/19 03:38:29;;;;;;;1.40;1.30;;;18.30;52.40;;;;;;8364930;28;20077;-48
2023/12/19 03:42:29;;;;;;;1.70;1.45;;;18.30;52.40;;;;;;8364758;28;20401;-49
2023/12/19 03:46:30;;;;;;;1.45;1.35;;;18.30;52.90;;;;;;8364965;28;20036;-48
2023/12/19 03:50:31;;;;;;;1.20;1.10;;;18.30;52.40;;;;;;8363400;28;20037;-48
2023/12/19 03:54:32;;;;;;;1.40;1.13;;;18.30;52.40;;;;;;8364474;28;20086;-49
2023/12/19 03:58:32;;;;;;;1.40;1.30;;;18.30;52.40;;;;;;8364564;28;20390;-49
2023/12/19 04:02:33;;;;;;;1.92;1.52;;;18.30;52.40;;;;;;8364209;28;20287;-48
2023/12/19 04:06:34;;;;;;;2.15;1.25;;;18.20;52.40;;;;;;8364186;28;20029;-48
2023/12/19 04:10:35;;;;;;;1.70;1.13;;;18.20;52.50;;;;;;8364002;28;20033;-48
2023/12/19 04:14:35;;;;;;;1.40;1.30;;;18.20;53.00;;;;;;8363864;28;20033;-48
2023/12/19 04:18:36;;;;;;;1.77;1.38;;;18.20;52.50;;;;;;8363700;28;20039;-49
2023/12/19 04:22:37;;;;;;;1.33;1.00;;;18.30;52.50;;;;;;8363761;28;20040;-52
2023/12/19 04:26:38;;;;;;;;;;;18.20;52.40;;;;;;8364012;28;20517;-49
2023/12/19 04:30:39;;;;;;;1.40;1.30;;;18.20;52.40;;;;;;8361917;28;20294;-49
2023/12/19 04:34:40;;;;;;;1.70;1.23;;;18.30;52.50;;;;;;8361762;28;20382;-48
2023/12/19 04:38:40;;;;;;;1.48;1.30;;;18.20;52.40;;;;;;8362799;28;20098;-48
2023/12/19 04:42:41;;;;;;;1.35;1.25;;;18.20;52.40;;;;;;8362533;28;20029;-48
2023/12/19 04:46:43;;;;;;;1.77;1.40;;;18.20;52.40;;;;;;8361458;28;20033;-49
2023/12/19 04:50:44;;;;;;;1.48;1.38;;;18.30;52.50;;;;;;8362651;28;20035;-51
2023/12/19 04:54:45;;;;;;;1.75;1.42;;;18.20;52.40;;;;;;8362325;28;20045;-52
2023/12/19 04:58:46;;;;;;;2.03;1.40;;;18.20;52.40;;;;;;8362098;28;20048;-49
2023/12/19 05:02:47;;;;;;;1.63;1.52;;;18.20;52.40;;;;;;8362412;28;20035;-49
2023/12/19 05:06:47;;;;;;;1.67;1.38;;;18.20;52.40;;;;;;8362092;28;20045;-48
2023/12/19 05:10:49;;;;;;;1.65;1.50;;;18.20;52.40;;;;;;8361698;28;20090;-48
2023/12/19 05:14:49;;;;;;;1.83;1.35;;;18.30;52.40;;;;;;8361837;28;20040;-49
2023/12/19 05:18:50;;;;;;;1.52;1.20;;;18.30;52.30;;;;;;8360326;28;20041;-48
2023/12/19 05:22:51;;;;;;;1.20;1.10;;;18.40;52.20;;;;;;8360059;28;20078;-50
2023/12/19 05:26:51;;;;;;;1.75;1.40;;;18.40;52.00;;;;;;8361162;28;20032;-48
2023/12/19 05:30:56;;;;;;;1.10;1.00;;;18.50;51.90;;;;;;8361268;28;20375;-49
2023/12/19 05:34:56;;;;;;;1.95;1.25;;;18.50;51.80;;;;;;8361068;28;20075;-48
2023/12/19 05:38:57;;;;;;;1.30;1.20;;;18.60;51.70;;;;;;8360744;28;20099;-49
2023/12/19 05:42:58;;;;;;;1.38;1.20;;;18.60;51.80;;;;;;8360827;28;20382;-50
2023/12/19 05:46:59;;;;;;;1.42;1.17;;;18.60;51.70;;;;;;8360745;28;20045;-48
2023/12/19 05:51:00;;;;;;;1.17;1.08;;;18.60;51.70;;;;;;8359827;28;20164;-49
2023/12/19 05:55:00;;;;;;;1.42;1.08;;;18.60;51.60;;;;;;8360365;28;20061;-49
2023/12/19 05:59:01;;;;;;;1.45;1.35;;;18.60;51.60;;;;;;8360710;28;20025;-48
2023/12/19 06:03:02;;;;;;;1.40;1.27;;;18.60;51.60;;;;;;8360352;28;20029;-48
2023/12/19 06:07:03;;;;;;;1.55;1.35;;;18.60;51.50;;;;;;8360317;28;20037;-48
2023/12/19 06:11:04;;;;;;;1.25;1.15;;;18.60;51.50;;;;;;8360153;28;20383;-49
2023/12/19 06:15:08;;;;;;;;;;;18.60;51.50;;;;;;8360424;28;20066;-49
2023/12/19 06:19:09;;;;;;;1.48;1.20;;;18.70;51.50;;;;;;8360149;28;19905;-51
2023/12/19 06:23:10;;;;;;;1.60;1.50;;;18.70;51.50;;;;;;8359973;28;20053;-50
2023/12/19 06:27:15;;;;;;;1.00;1.00;;;18.60;51.40;;;;;;8360018;28;20144;-51
2023/12/19 06:31:17;;;;;;;1.70;1.30;;;18.60;51.40;;;;;;8360113;28;20048;-48
2023/12/19 06:35:17;;;;;;;1.20;1.10;;;18.70;51.40;;;;;;8359761;28;20029;-49
2023/12/19 06:39:18;;;;;;;1.23;1.13;;;18.70;51.40;;;;;;8359333;28;20049;-49
2023/12/19 06:43:19;;;;;;;1.30;1.20;;;18.70;51.40;;;;;;8359827;28;20390;-49
2023/12/19 06:47:20;;;;;;;1.50;1.40;;;18.70;51.40;;;;;;8359745;28;20068;-49
2023/12/19 06:51:27;;;;;;;1.48;1.38;;;18.70;51.40;;;;;;8359635;28;20033;-48
2023/12/19 06:55:30;;;;;;;1.25;1.00;;;18.70;51.40;;;;;;8359244;28;20094;-48
2023/12/19 06:59:34;;;;;;;1.05;0.98;;;18.70;51.40;;;;;;8358117;28;20028;-48
2023/12/19 07:03:35;;;;;;;1.65;1.10;;;18.70;51.40;;;;;;8361799;28;20117;-49
2023/12/19 07:07:36;;;;;;;1.30;1.20;;;18.70;51.40;;;;;;8365714;28;20040;-50
2023/12/19 07:11:40;;;;;;;1.30;1.17;;;18.70;51.40;;;;;;8365784;28;20071;-51
2023/12/19 07:15:41;;;;;;;1.20;1.10;;;18.70;51.40;;;;;;8365792;28;20127;-49
2023/12/19 07:19:43;;;;;;;1.48;1.17;;;18.70;51.40;;;;;;8365452;28;20040;-50
2023/12/19 07:23:43;;;;;;;1.38;1.10;;;18.70;51.40;;;;;;8365316;28;20422;-49
2023/12/19 07:27:44;;;;;;;1.27;1.17;;;18.70;51.40;;;;;;8366034;28;20029;-49
2023/12/19 07:31:45;;;;;;;1.48;1.20;;;18.70;51.40;;;;;;8365117;28;20029;-51
2023/12/19 07:35:46;;;;;;;1.33;1.23;;;18.70;51.40;;;;;;8364859;28;20065;-47
2023/12/19 07:39:46;;;;;;;1.27;1.17;;;18.70;51.30;;;;;;8364596;28;20144;-49
2023/12/19 07:43:47;;;;;;;1.75;1.33;;;18.70;51.40;;;;;;8365470;28;20025;-50
2023/12/19 07:47:48;;;;;;;1.23;1.13;;;18.70;51.30;;;;;;8364739;28;20086;-48
2023/12/19 07:51:49;;;;;;;1.50;0.98;;;18.70;51.30;;;;;;8364600;28;20060;-49
2023/12/19 07:55:50;;;;;;;0.88;0.88;;;18.70;51.30;;;;;;8363960;28;20426;-49
2023/12/19 07:59:50;;;;;;;1.40;1.30;;;18.70;51.30;;;;;;8364234;28;20025;-49
2023/12/19 08:03:51;;;;;;;1.40;1.13;;;18.70;51.30;;;;;;8364734;28;20107;-49
2023/12/19 08:07:52;;;;;;;1.23;1.08;;;18.70;51.30;;;;;;8364032;28;20033;-50
2023/12/19 08:11:52;;;;;;;1.48;1.05;;;18.70;51.20;;;;;;8363876;28;20111;-49
2023/12/19 08:15:53;;;;;;;1.23;1.08;;;18.70;51.20;;;;;;8363107;28;20044;-48
2023/12/19 08:19:54;;;;;;;1.42;1.33;;;18.80;51.30;;;;;;8363515;28;20032;-50
2023/12/19 08:23:55;;;;;;;1.77;1.23;;;18.70;51.30;;;;;;8363432;28;20036;-48
2023/12/19 08:27:55;;;;;;;1.70;1.60;;;18.70;51.30;;;;;;8363456;28;20033;-48
2023/12/19 08:31:56;;;;;;;1.60;1.45;;;18.70;51.30;;;;;;8363432;28;20065;-49
2023/12/19 08:35:57;;;;;;;1.10;0.95;;;18.70;51.30;;;;;;8362901;28;20090;-49
2023/12/19 08:40:02;;;;;;;1.25;1.15;;;18.80;51.60;;;;;;8362712;28;20380;-49
2023/12/19 08:44:03;;;;;;;1.25;1.10;;;18.80;51.30;;;;;;8363173;28;20027;-50
2023/12/19 08:48:04;;;;;;;2.03;1.20;;;18.70;51.30;;;;;;8361686;28;20033;-48
2023/12/19 08:52:05;;;;;;;1.17;1.00;;;18.80;51.30;;;;;;8362471;28;20037;-48
2023/12/19 08:56:06;;;;;;;1.10;1.00;;;18.80;51.30;;;;;;8362676;28;20075;-48
2023/12/19 09:00:12;;;;;;;1.30;1.17;;;18.80;51.30;;;;;;8362445;28;20051;-48
2023/12/19 09:04:13;;;;;;;1.27;1.17;;;18.80;51.30;;;;;;8362379;28;20096;-51
2023/12/19 09:08:14;;;;;;;1.25;1.15;;;18.80;51.30;;;;;;8362347;28;20025;-50
2023/12/19 09:12:14;;;;;;;1.10;1.00;;;18.80;51.30;;;;;;8362210;28;20422;-51
2023/12/19 09:16:15;;;;;;;0.80;0.80;;;18.80;51.30;;;;;;8361869;28;20099;-51
2023/12/19 09:20:17;;;;;;;1.23;1.13;;;18.70;51.30;;;;;;8361769;28;20395;-51
2023/12/19 09:24:17;;;;;;;0.80;0.80;;;18.70;51.30;;;;;;8361732;28;20040;-50
2023/12/19 09:28:18;;;;;;;1.55;1.10;;;18.80;51.30;;;;;;8361487;28;20158;-53
2023/12/19 09:32:19;;;;;;;1.30;1.20;;;18.70;51.30;;;;;;8361450;28;20056;-52
2023/12/19 09:36:21;;;;;;;1.48;1.00;;;18.80;51.30;;;;;;8361197;28;20128;-50
2023/12/19 09:40:27;;;;;;;1.17;1.08;;;18.80;51.30;;;;;;8361082;28;20073;-52
2023/12/19 09:44:28;;;;;;;1.42;1.25;;;18.80;51.30;;;;;;8361053;28;20067;-50
2023/12/19 09:48:36;;;;;;;1.95;1.00;;;18.80;51.30;;;;;;8361134;28;20057;-52
2023/12/19 09:52:38;;;;;;;1.08;1.00;;;18.70;51.20;;;;;;8361085;28;20047;-50
2023/12/19 09:56:39;;;;;;;1.15;0.82;;;18.80;51.30;;;;;;8360740;28;20048;-50
2023/12/19 10:00:44;;;;;;;1.40;1.10;;;18.70;51.30;;;;;;8360724;28;20037;-51
2023/12/19 10:04:45;;;;;;;1.17;1.02;;;18.70;51.30;;;;;;8360457;28;20029;-51
2023/12/19 10:08:47;;;;;;;1.20;1.10;;;18.70;51.30;;;;;;8360519;28;20032;-51
2023/12/19 10:12:50;;;;;;;1.00;1.00;;;18.70;51.30;;;;;;8360480;28;20486;-51
2023/12/19 10:16:51;;;;;;;1.65;1.35;;;18.80;51.30;;;;;;8360416;28;20033;-52
2023/12/19 10:21:04;;;;;;;1.40;1.30;;;18.70;51.30;;;;;;8360341;28;20036;-53
2023/12/19 10:25:07;;;;;;;1.40;1.20;;;18.70;51.30;;;;;;8360179;28;20041;-51
2023/12/19 10:29:08;;;;;;;1.75;1.17;;;18.70;51.30;;;;;;8360365;28;20056;-48
2023/12/19 10:33:09;;;;;;;1.38;1.25;;;18.70;51.30;;;;;;8360163;28;20033;-51
2023/12/19 10:37:19;;;;;;;1.35;1.05;;;18.70;51.30;;;;;;8360047;28;20055;-52
2023/12/19 10:41:33;;;;;;;1.20;1.10;;;18.70;51.30;;;;;;8366597;28;20032;-52
2023/12/19 10:45:34;;;;;;;1.02;0.90;;;18.70;51.30;;;;;;8366463;28;20385;-52
2023/12/19 10:49:39;;;;;;;1.30;1.20;;;18.70;51.40;;;;;;8365180;28;20036;-51
2023/12/19 10:53:48;;;;;;;1.25;1.15;;;18.70;51.40;;;;;;8366444;28;20036;-53
2023/12/19 10:57:49;;;;;;;1.48;1.00;;;18.70;51.40;;;;;;8366046;28;20501;-50
2023/12/19 11:01:52;;;;;;;;;;;18.70;51.40;;;;;;8366467;28;20029;-51
2023/12/19 11:05:55;;;;;;;1.75;1.15;;;18.70;51.40;;;;;;8365796;28;19908;-51
2023/12/19 11:10:01;;;;;;;1.30;1.00;;;18.70;51.40;;;;;;8366151;28;20021;-52
2023/12/19 11:14:03;;;;;;;1.20;1.10;;;18.70;51.40;;;;;;8365654;28;20068;-51
2023/12/19 11:18:18;;;;;;;1.33;1.00;;;18.70;51.50;;;;;;8365770;28;20033;-52
2023/12/19 11:23:00;;;;;;;0.90;0.90;;;18.60;51.40;;;;;;8365373;28;20091;-52
2023/12/19 11:27:17;;;;;;;0.98;0.85;;;18.70;51.50;;;;;;8364119;28;20410;-51
2023/12/19 11:31:28;;;;;;;1.13;0.80;;;18.60;52.00;;;;;;8364986;28;20024;-51
2023/12/19 11:35:30;;;;;;;1.20;1.10;;;18.60;51.50;;;;;;8364992;28;20033;-50
2023/12/19 11:39:33;;;;;;;0.90;0.90;;;18.60;51.60;;;;;;8364625;28;20067;-52
2023/12/19 11:43:36;;;;;;;1.60;1.40;;;18.60;51.60;;;;;;8364670;28;20035;-50
2023/12/19 11:47:37;;;;;;;2.08;1.20;;;18.60;51.60;;;;;;8364619;28;20071;-50
2023/12/19 11:51:46;;;;;;;1.27;1.00;;;18.70;51.60;;;;;;8363356;28;20029;-50
2023/12/19 11:55:46;;;;;;;1.10;0.93;;;18.60;51.50;;;;;;8364325;28;20919;-52
2023/12/19 11:59:50;;;;;;;1.00;0.90;;;18.60;52.10;;;;;;8363968;28;20272;-50
2023/12/19 12:04:04;;;;;;;1.02;0.90;;;18.60;51.60;;;;;;8364184;28;20059;-51
2023/12/19 12:08:05;;;;;;;1.10;1.00;;;18.60;51.60;;;;;;8363264;28;20120;-51
2023/12/19 12:12:07;;;;;;;1.75;1.10;;;18.60;51.70;;;;;;8364129;28;20025;-53
2023/12/19 12:16:08;;;;;;;1.30;1.00;;;18.60;51.60;;;;;;8363451;28;20036;-51
2023/12/19 12:20:09;;;;;;;1.15;1.05;;;18.60;51.60;;;;;;8363398;28;20056;-50
2023/12/19 12:24:16;;;;;;;1.60;1.20;;;18.60;51.60;;;;;;8363451;28;20031;-51
2023/12/19 12:28:17;;;;;;;1.85;1.00;;;18.60;51.60;;;;;;8363422;28;20044;-51
2023/12/19 12:32:18;;;;;;;1.20;1.10;;;18.60;51.70;;;;;;8363218;28;20112;-52
2023/12/19 12:36:19;;;;;;;0.93;0.93;;;18.60;51.70;;;;;;8363011;28;20049;-52
2023/12/19 12:40:19;;;;;;;1.20;1.10;;;18.60;51.80;;;;;;8362849;28;20041;-50
2023/12/19 12:44:24;;;;;;;1.58;1.00;;;18.60;51.80;;;;;;8363072;28;20437;-52
2023/12/19 12:48:24;;;;;;;1.30;1.20;;;18.60;51.90;;;;;;8362783;28;20029;-50
2023/12/19 12:52:25;;;;;;;1.35;1.13;;;18.60;51.90;;;;;;8362512;28;20037;-50
2023/12/19 12:56:34;;;;;;;1.45;1.10;;;18.50;51.80;;;;;;8362526;28;20501;-49
2023/12/19 13:00:35;;;;;;;1.27;0.90;;;18.50;51.90;;;;;;8361702;28;20033;-52
2023/12/19 13:04:36;;;;;;;0.88;0.80;;;18.50;51.90;;;;;;8362301;28;20203;-52
2023/12/19 13:08:37;;;;;;;1.30;1.00;;;18.50;51.90;;;;;;8362129;28;20040;-51
2023/12/19 13:12:41;;;;;;;1.15;1.05;;;18.50;51.90;;;;;;8361944;28;20037;-50
2023/12/19 13:16:42;;;;;;;1.23;1.10;;;18.50;51.90;;;;;;8361568;28;20382;-50
2023/12/19 13:20:43;;;;;;;1.08;0.95;;;18.50;51.90;;;;;;8361653;28;20060;-51
2023/12/19 13:24:44;;;;;;;1.13;1.02;;;18.50;51.90;;;;;;8361617;28;20073;-51
2023/12/19 13:28:45;;;;;;;1.33;1.10;;;18.60;51.90;;;;;;8361264;28;20060;-50
2023/12/19 13:32:45;;;;;;;1.27;0.90;;;18.60;51.80;;;;;;8361399;28;20029;-49
2023/12/19 13:36:46;;;;;;;1.02;0.90;;;18.60;51.80;;;;;;8361583;28;20079;-50
2023/12/19 13:40:47;;;;;;;1.00;0.90;;;18.60;51.80;;;;;;8361087;28;20493;-50
2023/12/19 13:44:47;;;;;;;0.95;0.93;;;18.60;51.80;;;;;;8361125;28;20680;-52
2023/12/19 13:48:48;;;;;;;1.13;0.85;;;18.60;51.80;;;;;;8359740;28;20079;-49
2023/12/19 13:52:49;;;;;;;1.15;1.05;;;18.60;51.80;;;;;;8359890;28;20506;-51
2023/12/19 13:56:50;;;;;;;2.33;1.05;;;18.60;51.80;;;;;;8360579;28;20025;-53
2023/12/19 14:00:51;;;;;;;1.05;0.93;;;18.60;52.30;;;;;;8360635;28;20037;-50
2023/12/19 14:04:52;;;;;;;1.48;1.00;;;18.60;52.40;;;;;;8360754;28;20045;-51
2023/12/19 14:08:53;;;;;;;2.80;1.17;;;18.60;51.90;;;;;;8360405;28;20041;-51
2023/12/19 14:12:53;;;;;;;1.17;1.08;;;18.60;52.00;;;;;;8358417;28;20033;-52
2023/12/19 14:16:54;;;;;;;1.13;1.00;;;18.60;52.00;;;;;;8360095;28;20083;-52
2023/12/19 14:20:55;;;;;;;1.48;1.00;;;18.60;52.00;;;;;;8360405;28;20033;-51
2023/12/19 14:24:57;;;;;;;1.10;1.00;;;18.60;51.90;;;;;;8360360;28;20028;-51
2023/12/19 14:28:59;;;;;;;1.10;0.77;;;18.60;51.90;;;;;;8359861;28;20060;-52
2023/12/19 14:32:59;;;;;;;;;;;18.60;52.40;;;;;;8360632;28;20039;-50
2023/12/19 14:37:02;;;;;;;1.30;1.07;;;18.60;51.90;;;;;;8359640;28;19920;-51
2023/12/19 14:41:03;;;;;;;1.30;1.10;;;18.60;51.90;;;;;;8359998;28;20025;-52
2023/12/19 14:45:04;;;;;;;0.82;0.80;;;18.70;51.90;;;;;;8360355;28;20537;-51
2023/12/19 14:49:07;;;;;;;1.27;0.90;;;18.70;51.90;;;;;;8359763;28;20037;-52
2023/12/19 14:53:08;;;;;;;1.10;1.00;;;18.60;51.90;;;;;;8359851;28;20033;-52
2023/12/19 14:57:09;;;;;;;1.33;1.02;;;18.60;51.90;;;;;;8359468;28;20073;-50
2023/12/19 15:01:15;;;;;;;0.93;0.93;;;18.60;52.00;;;;;;8359831;28;20025;-50
2023/12/19 15:05:16;;;;;;;1.38;1.13;;;18.60;52.00;;;;;;8359636;28;20119;-51
2023/12/19 15:09:19;;;;;;;1.02;0.93;;;18.60;52.00;;;;;;8358520;28;20116;-50
2023/12/19 15:13:20;;;;;;;0.88;0.80;;;18.60;52.00;;;;;;8359595;28;20115;-50
2023/12/19 15:17:20;;;;;;;1.33;1.23;;;18.60;52.00;;;;;;8359766;28;20033;-52
2023/12/19 15:21:23;;;;;;;1.50;1.23;;;18.60;52.00;;;;;;8358138;28;20441;-52
2023/12/19 15:25:23;;;;;;;1.13;1.02;;;18.60;51.90;;;;;;8362803;28;20037;-50
2023/12/19 15:29:24;;;;;;;1.10;1.00;;;18.60;51.90;;;;;;8365127;28;20043;-51
2023/12/19 15:33:25;;;;;;;0.98;0.88;;;18.60;51.90;;;;;;8365315;28;20565;-52
2023/12/19 15:37:26;;;;;;;1.65;0.75;;;18.60;51.90;;;;;;8364972;28;20056;-50
2023/12/19 15:41:26;;;;;;;1.30;1.20;;;18.60;52.40;;;;;;8364869;28;20057;-53
2023/12/19 15:45:27;;;;;;;1.23;1.10;;;18.60;51.90;;;;;;8364978;28;20068;-52
2023/12/19 15:49:28;;;;;;;1.08;0.93;;;18.70;51.90;;;;;;8363568;28;20044;-53
2023/12/19 15:53:29;;;;;;;1.25;0.90;;;18.60;51.80;;;;;;8364686;28;20041;-51
2023/12/19 15:57:30;;;;;;;1.20;1.10;;;18.70;51.90;;;;;;8364472;28;20437;-52
2023/12/19 16:01:31;;;;;;;0.90;0.90;;;18.70;51.80;;;;;;8364332;28;20025;-51
2023/12/19 16:05:31;;;;;;;0.80;0.80;;;18.60;51.80;;;;;;8364486;28;20041;-54
2023/12/19 16:09:32;;;;;;;0.93;0.90;;;18.60;52.30;;;;;;8364025;28;20033;-54
2023/12/19 16:13:33;;;;;;;1.00;0.90;;;18.70;51.80;;;;;;8364097;28;20376;-54
2023/12/19 16:17:34;;;;;;;1.13;1.02;;;18.60;52.20;;;;;;8364097;28;20041;-54
2023/12/19 16:21:34;;;;;;;1.17;0.90;;;18.60;51.70;;;;;;8363551;28;20115;-54
2023/12/19 16:25:35;;;;;;;1.08;0.95;;;18.60;51.80;;;;;;8363705;28;20036;-55
2023/12/19 16:29:36;;;;;;;1.08;0.98;;;18.60;51.80;;;;;;8363351;28;20644;-53
2023/12/19 16:33:38;;;;;;;;;;;18.60;51.90;;;;;;8364275;28;20549;-53
2023/12/19 16:37:40;;;;;;;;;;;18.60;51.90;;;;;;8363053;28;19921;-52
2023/12/19 16:41:41;;;;;;;1.05;0.95;;;18.60;51.90;;;;;;8363075;28;20400;-52
2023/12/19 16:45:41;;;;;;;1.35;1.00;;;18.60;51.90;;;;;;8363004;28;20364;-53
2023/12/19 16:49:42;;;;;;;0.70;0.70;;;18.60;51.90;;;;;;8362790;28;20044;-54
2023/12/19 16:53:43;;;;;;;1.40;1.17;;;18.70;51.90;;;;;;8362691;28;20029;-54
2023/12/19 16:57:44;;;;;;;0.88;0.88;;;18.60;51.90;;;;;;8362288;28;20467;-53
2023/12/19 17:01:46;;;;;;;1.52;1.10;;;18.60;51.80;;;;;;8362192;28;20405;-52
2023/12/19 17:05:52;;;;;;;1.00;0.90;;;18.60;51.80;;;;;;8362295;28;20159;-52
2023/12/19 17:09:53;;;;;;;1.10;0.77;;;18.60;51.80;;;;;;8362039;28;20041;-53
2023/12/19 17:13:53;;;;;;;1.10;1.00;;;18.60;51.90;;;;;;8361947;28;20056;-54
2023/12/19 17:17:55;;;;;;;1.27;1.00;;;18.60;51.90;;;;;;8361846;28;20055;-54
2023/12/19 17:21:56;;;;;;;1.55;1.13;;;18.60;51.90;;;;;;8361824;28;20055;-55
2023/12/19 17:25:56;;;;;;;1.08;0.98;;;18.60;52.00;;;;;;8361466;28;20111;-54
2023/12/19 17:29:57;;;;;;;1.00;0.90;;;18.50;52.00;;;;;;8361345;28;20071;-53
2023/12/19 17:33:58;;;;;;;1.48;1.20;;;18.50;52.00;;;;;;8361437;28;20033;-52
2023/12/19 17:37:59;;;;;;;1.23;1.08;;;18.50;52.00;;;;;;8361186;28;20076;-55
2023/12/19 17:41:59;;;;;;;1.63;0.90;;;18.50;52.00;;;;;;8360976;28;20029;-53
2023/12/19 17:46:00;;;;;;;2.22;1.10;;;18.50;52.00;;;;;;8336918;28;20079;-54
2023/12/19 17:50:01;;;;;;;4.20;1.20;;;18.60;52.10;;;;;;8332399;28;20038;-54
2023/12/19 17:54:01;;;;;;;2.47;0.90;;;18.60;52.50;;;;;;8326507;28;20028;-54
2023/12/19 17:58:02;;;;;;;3.92;1.20;;;18.70;52.50;;;;;;8351558;28;20030;-53
2023/12/19 18:02:03;;;;;;;2.60;1.40;;;18.70;52.30;;;;;;8331243;28;20163;-53
2023/12/19 18:06:05;;;;;;;1.63;1.33;;;18.80;52.30;;;;;;8361259;28;20029;-53
2023/12/19 18:10:06;;;;;;;1.70;0.93;;;18.80;52.40;;;;;;8361047;28;20036;-52
2023/12/19 18:14:07;;;;;;;1.95;1.20;;;18.80;52.20;;;;;;8328837;28;20068;-53
2023/12/19 18:18:08;;;;;;;0.95;0.90;;;18.90;52.10;;;;;;8327985;28;20045;-55
2023/12/19 18:22:08;;;;;;;2.30;1.10;;;18.90;52.10;;;;;;8327990;28;20493;-54
2023/12/19 18:26:11;;;;;;;5.47;1.10;;;18.90;51.90;;;;;;8351991;28;20036;-56
2023/12/19 18:30:13;;;;;;;2.92;1.20;;;18.90;52.00;;;;;;8336055;28;20600;-51
2023/12/19 18:34:14;;;;;;;;;;;18.90;52.00;;;;;;8338596;28;20049;-50
2023/12/19 18:38:14;;;;;;;2.90;1.23;;;18.90;51.90;;;;;;8359950;28;19916;-48
2023/12/19 18:42:15;;;;;;;8.20;1.40;;;18.90;51.90;;;;;;8341067;28;20060;-49
2023/12/19 18:46:17;;;;;;;4.43;1.45;;;18.90;51.90;;;;;;8350679;28;20124;-49
2023/12/19 18:50:18;;;;;;;19.75;1.40;;;18.90;51.80;;;;;;8354622;28;20048;-49
2023/12/19 18:54:19;;;;;;;2.22;1.50;;;19.00;51.90;;;;;;8360409;28;20045;-49
2023/12/19 18:58:20;;;;;;;3.08;1.33;;;19.00;52.00;;;;;;8344035;28;20506;-50
2023/12/19 19:02:20;;;;;;;3.47;1.08;;;19.00;52.00;;;;;;8352205;28;20029;-49
2023/12/19 19:06:21;;;;;;;3.35;1.10;;;18.90;51.80;;;;;;8346319;28;20033;-49
2023/12/19 19:10:22;;;;;;;2.30;1.42;;;18.90;52.00;;;;;;8345879;28;20048;-47
2023/12/19 19:14:23;;;;;;;11.30;1.80;;;18.90;51.90;;;;;;8351657;28;20033;-47
2023/12/19 19:18:25;;;;;;;4.57;1.40;;;18.90;51.80;;;;;;8349958;28;20036;-49
2023/12/19 19:22:26;;;;;;;3.90;1.48;;;18.90;51.90;;;;;;8358379;28;20036;-48
2023/12/19 19:26:27;;;;;;;5.22;1.48;;;18.90;52.10;;;;;;8351502;28;20033;-47
2023/12/19 19:30:27;;;;;;;8.50;1.58;;;19.00;52.30;;;;;;8365941;28;20041;-48
2023/12/19 19:34:28;;;;;;;4.00;1.92;;;19.00;52.30;;;;;;8352509;28;20037;-51
2023/12/19 19:38:29;;;;;;;4.40;1.88;;;19.00;52.10;;;;;;8345838;28;20049;-50
2023/12/19 19:42:30;;;;;;;5.82;1.23;;;19.00;52.10;;;;;;8345695;28;20108;-48
2023/12/19 19:46:32;;;;;;;5.95;1.52;;;19.00;52.30;;;;;;8367741;28;20041;-49
2023/12/19 19:50:34;;;;;;;7.55;1.60;;;19.00;52.40;;;;;;8366697;28;20029;-50
2023/12/19 19:54:35;;;;;;;1.95;1.20;;;19.00;52.40;;;;;;8365749;28;20039;-49
2023/12/19 19:58:36;;;;;;;4.03;1.20;;;19.10;52.50;;;;;;8359613;28;20040;-49
2023/12/19 20:02:36;;;;;;;5.35;1.80;;;19.10;52.60;;;;;;8352422;28;20484;-50
2023/12/19 20:06:37;;;;;;;4.40;1.80;;;19.10;52.30;;;;;;8368678;28;20278;-49
2023/12/19 20:10:38;;;;;;;7.55;1.80;;;19.10;52.10;;;;;;8364882;28;20076;-51
2023/12/19 20:14:40;;;;;;;;;;;19.10;52.10;;;;;;8356151;28;20171;-51
2023/12/19 20:18:41;;;;;;;;;;;19.10;52.20;;;;;;8367312;28;20343;-51
2023/12/19 20:22:42;;;;;;;5.32;2.53;;;19.10;52.20;;;;;;8374599;28;19912;-50
2023/12/19 20:26:43;;;;;;;7.53;2.63;;;19.10;52.20;;;;;;8360978;28;20041;-49
2023/12/19 20:30:43;;;;;;;12.73;4.07;;;19.00;52.10;;;;;;8369318;28;20554;-49
2023/12/19 20:34:44;;;;;;;7.60;2.45;;;19.10;52.50;;;;;;8358706;28;20052;-50
2023/12/19 20:38:45;;;;;;;9.35;3.03;;;19.00;52.10;;;;;;8371860;28;20107;-50
2023/12/19 20:42:49;;;;;;;12.70;3.33;;;19.00;52.20;;;;;;8374095;28;20036;-49
2023/12/19 20:46:51;;;;;;;9.23;3.13;;;19.00;52.30;;;;;;8373278;28;20039;-49
2023/12/19 20:50:52;;;;;;;12.13;2.63;;;18.90;52.40;;;;;;8351870;28;20063;-49
2023/12/19 20:54:53;;;;;;;13.23;3.40;;;18.90;52.50;;;;;;8367283;28;20055;-52
2023/12/19 20:58:53;;;;;;;8.88;2.92;;;19.10;53.00;;;;;;8367793;28;20086;-52